Flight Track Log - Related Links

Times and Time Zones

All times are in EDT time to prevent confusion due to time zone crossing. See the SWA8500 flight status page for this flight to view local times or setup timezone preferences in your user account.

Time Position Orientation Groundspeed Altitude Reporting Facility
EDT Latitude Longitude Course Direction KTS MPH feet Rate Location/Type
Sat 06:32:51 AM 41.8000 -87.7000 90° East 176 203 2,900  Level Chicago TRACON
Sat 06:33:21 AM 41.7989 -87.6533 92° East 205 236 4,000 2,667 Climbing Chicago Center
Sat 06:34:21 AM 41.7942 -87.5544 94° East 263 303 6,900 3,322 Climbing Chicago Center
Sat 06:35:22 AM 41.7875 -87.4389 94° East 307 353 10,700 3,719 Climbing Chicago Center
Sat 06:36:22 AM 41.7783 -87.3081 95° East 347 399 14,400 3,500 Climbing Chicago Center
Sat 06:37:22 AM 41.7694 -87.1678 95° East 378 435 17,700 2,777 Climbing Chicago Center
Sat 06:38:00 AM 41.7500 -86.8820 90° East  Level FlightAware Approximate
Sat 06:38:23 AM 41.7611 -87.0306 95° East 397 457 20,000  Level Chicago Center
Sat 06:39:23 AM 41.7631 -86.8706 89° East 424 488 22,900 2,876 Climbing Chicago Center
Sat 06:40:24 AM 41.7664 -86.6903 89° East 439 505 25,800 3,124 Climbing Chicago Center
Sat 06:41:24 AM 41.7658 -86.5239 90° East 448 516 29,200 2,700 Climbing Chicago Center
Sat 06:42:24 AM 41.7678 -86.3544 89° East 453 521 31,200 1,983 Climbing Chicago Center
Sat 06:43:25 AM 41.7600 -86.1764 93° East 475 547 33,200 1,983 Climbing Chicago Center
Sat 06:44:25 AM 41.7483 -85.9975 95° East 479 551 35,200 1,900 Climbing Chicago Center
Sat 06:45:25 AM 41.7364 -85.8164 95° East 486 559 37,000 893 Climbing Chicago Center
Sat 06:46:26 AM 41.7247 -85.6303 95° East 497 572 37,000  Level Chicago Center
Sat 06:47:26 AM 41.7128 -85.4636 95° East 493 567 37,000  Level Chicago Center
Sat 06:48:27 AM 41.7000 -85.2858 95° East 488 562 37,000  Level Chicago Center
Sat 06:49:27 AM 41.6911 -85.1092 94° East 499 574 37,000  Level Chicago Center
Sat 06:50:27 AM 41.6778 -84.9336 96° East 481 554 37,000  Level Chicago Center
Sat 06:51:39 AM 41.6633 -84.7181 95° East 481 554 37,000  Level Cleveland Center
Sat 06:52:40 AM 41.6281 -84.5422 105° East 495 570 37,000  Level Cleveland Center
Sat 06:53:42 AM 41.5536 -84.3442 117° Southeast 495 570 37,000  Level Cleveland Center
Sat 06:54:43 AM 41.4997 -84.1986 116° Southeast 498 573 37,000  Level Cleveland Center
Sat 06:55:44 AM 41.4383 -84.0322 116° Southeast 502 578 37,000  Level Cleveland Center
Sat 06:56:45 AM 41.3761 -83.8653 116° Southeast 503 579 37,000  Level Cleveland Center
Sat 06:57:46 AM 41.3022 -83.6658 116° Southeast 505 581 37,000  Level Cleveland Center
Sat 06:58:47 AM 41.2414 -83.5022 116° Southeast 503 579 37,000  Level Cleveland Center
Sat 06:59:48 AM 41.1792 -83.3386 117° Southeast 502 578 37,000  Level Cleveland Center
Sat 07:00:50 AM 41.1167 -83.1761 117° Southeast 500 575 37,000  Level Cleveland Center
Sat 07:01:51 AM 41.0519 -83.0053 117° Southeast 500 575 37,000  Level Cleveland Center
Sat 07:02:52 AM 40.9889 -82.8406 117° Southeast 500 575 37,000  Level Cleveland Center
Sat 07:03:28 AM 40.9469 -82.7311 117° Southeast 500 575 37,000  Level Cleveland Center
Sat 07:04:29 AM 40.8836 -82.5683 117° Southeast 499 574 37,000  Level Cleveland Center
Sat 07:05:31 AM 40.8197 -82.4053 117° Southeast 499 574 37,000  Level Cleveland Center
Sat 07:06:32 AM 40.7569 -82.2422 117° Southeast 499 574 37,000  Level Cleveland Center
Sat 07:07:33 AM 40.6936 -82.0803 117° Southeast 499 574 37,000  Level Cleveland Center
Sat 07:08:34 AM 40.6292 -81.9183 118° Southeast 498 573 37,000  Level Cleveland Center
Sat 07:09:35 AM 40.5642 -81.7567 118° Southeast 498 573 37,000  Level Cleveland Center
Sat 07:10:36 AM 40.5000 -81.5956 118° Southeast 498 573 37,000 -49 Level Cleveland Center
Sat 07:11:38 AM 40.4356 -81.4350 118° Southeast 497 572 36,900 -439 Descending Cleveland Center
Sat 07:12:39 AM 40.3653 -81.2600 118° Southeast 498 573 36,100 -689 Descending Cleveland Center
Sat 07:13:40 AM 40.3000 -81.1011 118° Southeast 498 573 35,500 -541 Descending Cleveland Center
Sat 07:14:41 AM 40.2339 -80.9422 119° Southeast 498 573 35,000 -341 Descending Cleveland Center
Sat 07:15:43 AM 40.1694 -80.7842 118° Southeast 498 573 34,800 -585 Descending Cleveland Center
Sat 07:16:44 AM 40.1036 -80.6236 118° Southeast 500 575 33,800 -885 Descending Cleveland Center
Sat 07:17:45 AM 40.0233 -80.4314 119° Southeast 507 583 33,000 -732 Descending Cleveland Center
Sat 07:18:47 AM 39.9572 -80.2731 119° Southeast 506 582 32,300 -1,024 Descending Cleveland Center
Sat 07:19:48 AM 39.8903 -80.1131 119° Southeast 506 582 30,900 -1,574 Descending Cleveland Center
Sat 07:20:49 AM 39.8400 -79.9453 111° Southeast 502 578 29,100 -927 Descending Cleveland Center
Sat 07:21:51 AM 39.8025 -79.7667 105° East 516 594 29,000 -49 Descending Cleveland Center
Sat 07:22:52 AM 39.7653 -79.5856 105° East 518 596 29,000  Level Cleveland Center
Sat 07:23:53 AM 39.7283 -79.4083 105° East 514 592 29,000 -1,024 Level Cleveland Center
Sat 07:24:55 AM 39.6822 -79.1967 106° East 512 589 26,900 -1,659 Descending Cleveland Center
Sat 07:25:56 AM 39.6481 -79.0283 105° East 484 557 25,600 -984 Descending Cleveland Center
Sat 07:26:57 AM 39.6161 -78.8814 106° East 469 540 24,900 -683 Descending Cleveland Center
Sat 07:27:59 AM 39.5800 -78.7203 106° East 466 536 24,200 -1,268 Descending Cleveland Center
Sat 07:29:00 AM 39.5469 -78.5664 106° East 447 514 22,300 -2,164 Descending Cleveland Center
Sat 07:30:01 AM 39.5142 -78.4178 106° East 433 498 19,800 -2,761 Descending Cleveland Center
Sat 07:30:53 AM 39.4808 -78.2725 107° East 422 486 17,100 -2,549 Descending Washington Center
Sat 07:31:54 AM 39.4500 -78.1344 106° East 406 467 15,000 -1,258 Descending Washington Center
Sat 07:32:57 AM 39.4333 -77.9975 99° East 393 452 14,500 -624 Descending Washington Center
Sat 07:33:59 AM 39.4381 -77.8561 87° East 389 448 13,700 -829 Descending Washington Center
Sat 07:35:00 AM 39.4403 -77.7225 89° East 377 434 12,800 -816 Descending Washington Center
Sat 07:36:04 AM 39.4419 -77.5956 89° East 356 410 12,000 -726 Descending Washington Center
Sat 07:37:04 AM 39.4444 -77.4658 89° East 356 410 11,300 -443 Descending Washington Center
Sat 07:38:06 AM 39.4489 -77.3394 87° East 352 405 11,100 -150 Descending Washington Center
Sat 07:39:04 AM 39.4667 -77.2000 81° East 326 375 11,000 -51 Descending Potomac TRACON
Sat 07:40:04 AM 39.4833 -77.0833 79° East 338 389 11,000 -316 Level Potomac TRACON
Sat 07:40:58 AM 39.4833 -76.9833 90° East 328 377 10,400 -1,246 Descending Potomac TRACON
Sat 07:42:14 AM 39.4750 -76.8508 95° East 319 367 8,300 -1,796 Descending Washington Center
Sat 07:43:15 AM 39.4644 -76.7369 97° East 319 367 6,300 -1,839 Descending Washington Center
Sat 07:44:18 AM 39.4203 -76.6378 120° Southeast 329 379 4,500 -1,546 Descending Washington Center
Sat 07:44:52 AM 39.3667 -76.5833 142° Southeast 312 359 3,800 -1,364 Descending Potomac TRACON
Sat 07:45:46 AM 39.3167 -76.5333 142° Southeast 300 345 2,500 -722 Descending Potomac TRACON
Sat 07:46:40 AM 39.2500 -76.5000 159° South 258 297 2,500 -53 Level Potomac TRACON
Sat 07:47:40 AM 39.1833 -76.5000 180° South 246 283 2,400 -300 Descending Potomac TRACON
Sat 07:48:40 AM 39.1667 -76.5500 247° West 156 180 1,900 -600 Descending Potomac TRACON
Sat 07:49:40 AM 39.1667 -76.5833 270° West 116 133 1,200 -737 Descending Potomac TRACON
Sat 07:50:34 AM 39.1667 -76.6333 270° West 122 140 500 -778 Descending Potomac TRACON
Sat 07:53:00 AM 39.1667 -76.6667 262° West  Level FlightAware Approximate

Login

Don't have an account? Register now (free) for customized features, flight alerts, and more!